sensor_id;sensor_type;location;lat;lon;timestamp;temperature;humidity
23073;DHT22;34865;51.046;3.732;2022-09-09T00:04:09;16.60;99.90
23073;DHT22;34865;51.046;3.732;2022-09-09T00:06:45;16.60;99.90
23073;DHT22;34865;51.046;3.732;2022-09-09T00:09:19;16.60;99.90
23073;DHT22;34865;51.046;3.732;2022-09-09T00:17:14;16.50;99.90
23073;DHT22;34865;51.046;3.732;2022-09-09T00:19:56;16.50;99.90
23073;DHT22;34865;51.046;3.732;2022-09-09T00:22:25;16.60;99.90
23073;DHT22;34865;51.046;3.732;2022-09-09T00:24:55;16.60;99.90
23073;DHT22;34865;51.046;3.732;2022-09-09T00:30:21;16.50;99.90
23073;DHT22;34865;51.046;3.732;2022-09-09T00:32:50;16.60;99.90
23073;DHT22;34865;51.046;3.732;2022-09-09T00:35:47;16.60;99.90
23073;DHT22;34865;51.046;3.732;2022-09-09T00:38:34;16.50;99.90
23073;DHT22;34865;51.046;3.732;2022-09-09T00:43:40;16.50;99.90
23073;DHT22;34865;51.046;3.732;2022-09-09T00:51:41;16.30;99.90
23073;DHT22;34865;51.046;3.732;2022-09-09T00:59:48;16.10;99.90
23073;DHT22;34865;51.046;3.732;2022-09-09T01:04:54;16.30;99.90
23073;DHT22;34865;51.046;3.732;2022-09-09T01:07:20;16.50;99.90
23073;DHT22;34865;51.046;3.732;2022-09-09T01:09:56;16.50;99.90
23073;DHT22;34865;51.046;3.732;2022-09-09T01:12:38;16.50;99.90
23073;DHT22;34865;51.046;3.732;2022-09-09T01:15:20;16.60;99.90
23073;DHT22;34865;51.046;3.732;2022-09-09T01:17:52;16.40;99.90
23073;DHT22;34865;51.046;3.732;2022-09-09T01:20:29;16.40;99.90
23073;DHT22;34865;51.046;3.732;2022-09-09T01:23:04;16.30;99.90
23073;DHT22;34865;51.046;3.732;2022-09-09T01:28:12;16.30;99.90
23073;DHT22;34865;51.046;3.732;2022-09-09T01:30:40;16.30;99.90
23073;DHT22;34865;51.046;3.732;2022-09-09T01:33:12;16.20;99.90
23073;DHT22;34865;51.046;3.732;2022-09-09T01:38:07;16.20;99.90
23073;DHT22;34865;51.046;3.732;2022-09-09T01:40:33;16.40;99.90
23073;DHT22;34865;51.046;3.732;2022-09-09T01:42:59;16.50;99.90
23073;DHT22;34865;51.046;3.732;2022-09-09T01:45:25;16.50;99.90
23073;DHT22;34865;51.046;3.732;2022-09-09T01:47:52;16.40;99.90
23073;DHT22;34865;51.046;3.732;2022-09-09T01:50:18;16.40;99.90
23073;DHT22;34865;51.046;3.732;2022-09-09T01:52:45;16.40;99.90
23073;DHT22;34865;51.046;3.732;2022-09-09T01:55:12;16.40;99.90
23073;DHT22;34865;51.046;3.732;2022-09-09T02:00:19;16.20;99.90
23073;DHT22;34865;51.046;3.732;2022-09-09T02:03:08;16.30;99.90
23073;DHT22;34865;51.046;3.732;2022-09-09T02:05:44;16.40;99.90
23073;DHT22;34865;51.046;3.732;2022-09-09T02:08:23;16.30;99.90
23073;DHT22;34865;51.046;3.732;2022-09-09T02:11:06;16.20;99.90
23073;DHT22;34865;51.046;3.732;2022-09-09T02:13:36;16.20;99.90
23073;DHT22;34865;51.046;3.732;2022-09-09T02:18:51;16.00;99.90
23073;DHT22;34865;51.046;3.732;2022-09-09T02:21:19;16.10;99.90
23073;DHT22;34865;51.046;3.732;2022-09-09T02:23:47;16.00;99.90
23073;DHT22;34865;51.046;3.732;2022-09-09T02:26:18;16.00;99.90
23073;DHT22;34865;51.046;3.732;2022-09-09T02:28:48;16.00;99.90
23073;DHT22;34865;51.046;3.732;2022-09-09T02:31:18;16.00;99.90
23073;DHT22;34865;51.046;3.732;2022-09-09T02:33:51;16.10;99.90
23073;DHT22;34865;51.046;3.732;2022-09-09T02:36:19;16.20;99.90
23073;DHT22;34865;51.046;3.732;2022-09-09T02:38:46;16.20;99.90
23073;DHT22;34865;51.046;3.732;2022-09-09T02:41:20;16.30;99.90
23073;DHT22;34865;51.046;3.732;2022-09-09T02:43:47;16.50;99.90
23073;DHT22;34865;51.046;3.732;2022-09-09T02:49:19;16.80;99.90
23073;DHT22;34865;51.046;3.732;2022-09-09T02:52:00;16.50;99.90
23073;DHT22;34865;51.046;3.732;2022-09-09T02:54:34;16.40;99.90
23073;DHT22;34865;51.046;3.732;2022-09-09T02:59:34;16.30;99.90
23073;DHT22;34865;51.046;3.732;2022-09-09T03:02:00;16.20;99.90
23073;DHT22;34865;51.046;3.732;2022-09-09T03:04:26;16.10;99.90
23073;DHT22;34865;51.046;3.732;2022-09-09T03:06:52;16.20;99.90
23073;DHT22;34865;51.046;3.732;2022-09-09T03:09:17;16.30;99.90
23073;DHT22;34865;51.046;3.732;2022-09-09T03:11:43;16.40;99.90
23073;DHT22;34865;51.046;3.732;2022-09-09T03:14:09;16.30;99.90
23073;DHT22;34865;51.046;3.732;2022-09-09T03:16:36;16.40;99.90
23073;DHT22;34865;51.046;3.732;2022-09-09T03:19:02;16.70;99.90
23073;DHT22;34865;51.046;3.732;2022-09-09T03:21:28;16.60;99.90
23073;DHT22;34865;51.046;3.732;2022-09-09T03:23:53;16.50;99.90
23073;DHT22;34865;51.046;3.732;2022-09-09T03:26:19;16.50;99.90
23073;DHT22;34865;51.046;3.732;2022-09-09T03:28:45;16.40;99.90
23073;DHT22;34865;51.046;3.732;2022-09-09T03:31:11;16.50;99.90
23073;DHT22;34865;51.046;3.732;2022-09-09T03:33:37;16.50;99.90
23073;DHT22;34865;51.046;3.732;2022-09-09T03:36:04;16.60;99.90
23073;DHT22;34865;51.046;3.732;2022-09-09T03:38:30;16.40;99.90
23073;DHT22;34865;51.046;3.732;2022-09-09T03:40:57;16.40;99.90
23073;DHT22;34865;51.046;3.732;2022-09-09T03:43:24;16.40;99.90
23073;DHT22;34865;51.046;3.732;2022-09-09T03:45:51;16.50;99.90
23073;DHT22;34865;51.046;3.732;2022-09-09T03:48:17;16.60;99.90
23073;DHT22;34865;51.046;3.732;2022-09-09T03:50:47;16.90;99.90
23073;DHT22;34865;51.046;3.732;2022-09-09T03:53:14;17.00;99.90
23073;DHT22;34865;51.046;3.732;2022-09-09T03:55:45;16.90;99.90
23073;DHT22;34865;51.046;3.732;2022-09-09T03:58:14;16.90;99.90
23073;DHT22;34865;51.046;3.732;2022-09-09T04:00:40;16.80;99.90
23073;DHT22;34865;51.046;3.732;2022-09-09T04:03:11;16.80;99.90
23073;DHT22;34865;51.046;3.732;2022-09-09T04:05:39;17.00;99.90
23073;DHT22;34865;51.046;3.732;2022-09-09T04:08:05;17.10;99.90
23073;DHT22;34865;51.046;3.732;2022-09-09T04:10:31;17.10;99.90
23073;DHT22;34865;51.046;3.732;2022-09-09T04:12:57;16.90;99.90
23073;DHT22;34865;51.046;3.732;2022-09-09T04:15:22;16.90;99.90
23073;DHT22;34865;51.046;3.732;2022-09-09T04:17:48;16.90;99.90
23073;DHT22;34865;51.046;3.732;2022-09-09T04:20:13;17.00;99.90
23073;DHT22;34865;51.046;3.732;2022-09-09T04:22:39;16.90;99.90
23073;DHT22;34865;51.046;3.732;2022-09-09T04:25:05;16.80;99.90
23073;DHT22;34865;51.046;3.732;2022-09-09T04:27:31;16.80;99.90
23073;DHT22;34865;51.046;3.732;2022-09-09T04:30:27;17.00;99.90
23073;DHT22;34865;51.046;3.732;2022-09-09T04:33:17;17.10;99.90
23073;DHT22;34865;51.046;3.732;2022-09-09T04:35:47;17.00;99.90
23073;DHT22;34865;51.046;3.732;2022-09-09T04:38:14;16.80;99.90
23073;DHT22;34865;51.046;3.732;2022-09-09T04:40:43;16.90;99.90
23073;DHT22;34865;51.046;3.732;2022-09-09T04:43:09;16.80;99.90
23073;DHT22;34865;51.046;3.732;2022-09-09T04:45:35;16.90;99.90
23073;DHT22;34865;51.046;3.732;2022-09-09T04:48:03;16.70;99.90
23073;DHT22;34865;51.046;3.732;2022-09-09T04:50:29;16.70;99.90
23073;DHT22;34865;51.046;3.732;2022-09-09T04:52:55;16.70;99.90
23073;DHT22;34865;51.046;3.732;2022-09-09T04:55:20;16.80;99.90
23073;DHT22;34865;51.046;3.732;2022-09-09T04:57:46;16.90;99.90
23073;DHT22;34865;51.046;3.732;2022-09-09T05:00:12;16.80;99.90
23073;DHT22;34865;51.046;3.732;2022-09-09T05:02:39;16.70;99.90
23073;DHT22;34865;51.046;3.732;2022-09-09T05:05:05;16.60;99.90
23073;DHT22;34865;51.046;3.732;2022-09-09T05:07:31;16.60;99.90
23073;DHT22;34865;51.046;3.732;2022-09-09T05:09:57;16.60;99.90
23073;DHT22;34865;51.046;3.732;2022-09-09T05:12:24;16.80;99.90
23073;DHT22;34865;51.046;3.732;2022-09-09T05:14:51;16.60;99.90
23073;DHT22;34865;51.046;3.732;2022-09-09T05:17:17;16.60;99.90
23073;DHT22;34865;51.046;3.732;2022-09-09T05:19:43;16.60;99.90
23073;DHT22;34865;51.046;3.732;2022-09-09T05:22:09;16.60;99.90
23073;DHT22;34865;51.046;3.732;2022-09-09T05:24:37;16.60;99.90
23073;DHT22;34865;51.046;3.732;2022-09-09T05:27:04;16.70;99.90
23073;DHT22;34865;51.046;3.732;2022-09-09T05:29:30;16.80;99.90
23073;DHT22;34865;51.046;3.732;2022-09-09T05:31:59;16.80;99.90
23073;DHT22;34865;51.046;3.732;2022-09-09T05:34:24;16.90;99.90
23073;DHT22;34865;51.046;3.732;2022-09-09T05:36:50;16.80;99.90
23073;DHT22;34865;51.046;3.732;2022-09-09T05:39:16;16.80;99.90
23073;DHT22;34865;51.046;3.732;2022-09-09T05:41:42;16.90;99.90
23073;DHT22;34865;51.046;3.732;2022-09-09T05:44:07;17.00;99.90
23073;DHT22;34865;51.046;3.732;2022-09-09T05:46:33;17.00;99.90
23073;DHT22;34865;51.046;3.732;2022-09-09T05:48:59;16.80;99.90
23073;DHT22;34865;51.046;3.732;2022-09-09T05:51:26;16.80;99.90
23073;DHT22;34865;51.046;3.732;2022-09-09T05:53:53;17.00;99.90
23073;DHT22;34865;51.046;3.732;2022-09-09T05:56:22;17.10;99.90
23073;DHT22;34865;51.046;3.732;2022-09-09T05:58:51;17.10;99.90
23073;DHT22;34865;51.046;3.732;2022-09-09T06:01:21;17.10;99.90
23073;DHT22;34865;51.046;3.732;2022-09-09T06:03:48;17.20;99.90
23073;DHT22;34865;51.046;3.732;2022-09-09T06:06:18;17.30;99.90
23073;DHT22;34865;51.046;3.732;2022-09-09T06:08:50;17.20;99.90
23073;DHT22;34865;51.046;3.732;2022-09-09T06:11:24;17.00;99.90
23073;DHT22;34865;51.046;3.732;2022-09-09T06:13:50;17.00;99.90
23073;DHT22;34865;51.046;3.732;2022-09-09T06:16:22;16.80;99.90
23073;DHT22;34865;51.046;3.732;2022-09-09T06:18:52;16.60;99.90
23073;DHT22;34865;51.046;3.732;2022-09-09T06:21:26;16.40;99.90
23073;DHT22;34865;51.046;3.732;2022-09-09T06:23:55;16.30;99.90
23073;DHT22;34865;51.046;3.732;2022-09-09T06:26:31;16.30;99.90
23073;DHT22;34865;51.046;3.732;2022-09-09T06:28:58;16.20;99.90
23073;DHT22;34865;51.046;3.732;2022-09-09T06:31:26;16.10;99.90
23073;DHT22;34865;51.046;3.732;2022-09-09T06:33:53;16.10;99.90
23073;DHT22;34865;51.046;3.732;2022-09-09T06:36:24;16.30;99.90
23073;DHT22;34865;51.046;3.732;2022-09-09T06:38:50;16.40;99.90
23073;DHT22;34865;51.046;3.732;2022-09-09T06:41:18;16.30;99.90
23073;DHT22;34865;51.046;3.732;2022-09-09T06:43:47;16.30;99.90
23073;DHT22;34865;51.046;3.732;2022-09-09T06:46:22;16.40;99.90
23073;DHT22;34865;51.046;3.732;2022-09-09T06:48:49;16.50;99.90
23073;DHT22;34865;51.046;3.732;2022-09-09T06:51:22;16.70;99.90
23073;DHT22;34865;51.046;3.732;2022-09-09T06:53:50;16.70;99.90
23073;DHT22;34865;51.046;3.732;2022-09-09T06:58:42;17.00;99.90
23073;DHT22;34865;51.046;3.732;2022-09-09T07:01:10;16.90;99.90
23073;DHT22;34865;51.046;3.732;2022-09-09T07:03:38;17.00;99.90
23073;DHT22;34865;51.046;3.732;2022-09-09T07:06:04;17.20;99.90
23073;DHT22;34865;51.046;3.732;2022-09-09T07:08:30;17.60;99.90
23073;DHT22;34865;51.046;3.732;2022-09-09T07:11:07;17.60;99.90
23073;DHT22;34865;51.046;3.732;2022-09-09T07:13:33;17.70;99.90
23073;DHT22;34865;51.046;3.732;2022-09-09T07:16:14;17.60;99.90
23073;DHT22;34865;51.046;3.732;2022-09-09T07:18:41;17.50;99.90
23073;DHT22;34865;51.046;3.732;2022-09-09T07:21:10;17.40;99.90
23073;DHT22;34865;51.046;3.732;2022-09-09T07:23:38;17.40;99.90
23073;DHT22;34865;51.046;3.732;2022-09-09T07:26:14;17.40;99.90
23073;DHT22;34865;51.046;3.732;2022-09-09T07:28:43;17.80;99.90
23073;DHT22;34865;51.046;3.732;2022-09-09T07:31:17;18.10;99.90
23073;DHT22;34865;51.046;3.732;2022-09-09T07:33:44;18.20;99.90
23073;DHT22;34865;51.046;3.732;2022-09-09T07:36:20;18.50;99.90
23073;DHT22;34865;51.046;3.732;2022-09-09T07:38:55;18.50;99.90
23073;DHT22;34865;51.046;3.732;2022-09-09T07:41:24;18.30;99.90
23073;DHT22;34865;51.046;3.732;2022-09-09T07:43:51;18.40;99.90
23073;DHT22;34865;51.046;3.732;2022-09-09T07:46:19;18.30;99.90
23073;DHT22;34865;51.046;3.732;2022-09-09T07:48:49;18.50;99.90
23073;DHT22;34865;51.046;3.732;2022-09-09T07:51:18;18.40;99.90
23073;DHT22;34865;51.046;3.732;2022-09-09T07:53:48;18.40;99.90
23073;DHT22;34865;51.046;3.732;2022-09-09T07:56:16;18.20;99.90
23073;DHT22;34865;51.046;3.732;2022-09-09T07:58:46;18.10;99.90
23073;DHT22;34865;51.046;3.732;2022-09-09T08:01:15;18.20;99.90
23073;DHT22;34865;51.046;3.732;2022-09-09T08:03:42;18.00;99.90
23073;DHT22;34865;51.046;3.732;2022-09-09T08:06:10;18.00;99.90
23073;DHT22;34865;51.046;3.732;2022-09-09T08:08:38;17.80;99.90
23073;DHT22;34865;51.046;3.732;2022-09-09T08:13:34;17.40;99.90
23073;DHT22;34865;51.046;3.732;2022-09-09T08:18:37;17.20;99.90
23073;DHT22;34865;51.046;3.732;2022-09-09T08:21:14;17.30;99.90
23073;DHT22;34865;51.046;3.732;2022-09-09T08:23:41;17.20;99.90
23073;DHT22;34865;51.046;3.732;2022-09-09T08:26:11;17.30;99.90
23073;DHT22;34865;51.046;3.732;2022-09-09T08:28:38;17.30;99.90
23073;DHT22;34865;51.046;3.732;2022-09-09T08:31:16;17.20;99.90
23073;DHT22;34865;51.046;3.732;2022-09-09T08:33:46;17.10;99.90
23073;DHT22;34865;51.046;3.732;2022-09-09T08:36:13;17.10;99.90
23073;DHT22;34865;51.046;3.732;2022-09-09T08:38:41;17.00;99.90
23073;DHT22;34865;51.046;3.732;2022-09-09T08:49:06;17.20;99.90
23073;DHT22;34865;51.046;3.732;2022-09-09T08:51:39;17.20;99.90
23073;DHT22;34865;51.046;3.732;2022-09-09T08:54:05;17.40;99.90
23073;DHT22;34865;51.046;3.732;2022-09-09T08:56:32;17.50;99.90
23073;DHT22;34865;51.046;3.732;2022-09-09T08:59:00;17.40;99.90
23073;DHT22;34865;51.046;3.732;2022-09-09T09:01:50;17.60;99.90
23073;DHT22;34865;51.046;3.732;2022-09-09T09:04:38;17.50;99.90
23073;DHT22;34865;51.046;3.732;2022-09-09T09:10:25;17.20;99.90
23073;DHT22;34865;51.046;3.732;2022-09-09T09:12:58;17.30;99.90
23073;DHT22;34865;51.046;3.732;2022-09-09T09:15:29;17.30;99.90
23073;DHT22;34865;51.046;3.732;2022-09-09T09:17:56;17.40;99.90
23073;DHT22;34865;51.046;3.732;2022-09-09T09:20:42;17.60;99.90
23073;DHT22;34865;51.046;3.732;2022-09-09T09:23:18;17.80;99.90
23073;DHT22;34865;51.046;3.732;2022-09-09T09:25:46;18.10;99.90
23073;DHT22;34865;51.046;3.732;2022-09-09T09:28:16;18.70;99.90
23073;DHT22;34865;51.046;3.732;2022-09-09T09:31:11;19.00;99.90
23073;DHT22;34865;51.046;3.732;2022-09-09T09:33:46;19.60;99.90
23073;DHT22;34865;51.046;3.732;2022-09-09T09:36:16;19.50;99.90
23073;DHT22;34865;51.046;3.732;2022-09-09T09:38:57;19.70;99.90
23073;DHT22;34865;51.046;3.732;2022-09-09T09:44:05;19.80;99.90
23073;DHT22;34865;51.046;3.732;2022-09-09T09:46:32;19.70;99.90
23073;DHT22;34865;51.046;3.732;2022-09-09T09:49:03;19.60;99.90
23073;DHT22;34865;51.046;3.732;2022-09-09T09:51:31;19.40;99.90
23073;DHT22;34865;51.046;3.732;2022-09-09T09:56:41;19.50;99.90
23073;DHT22;34865;51.046;3.732;2022-09-09T09:59:34;19.50;99.90
23073;DHT22;34865;51.046;3.732;2022-09-09T10:02:17;19.40;99.90
23073;DHT22;34865;51.046;3.732;2022-09-09T10:04:44;19.30;99.90
23073;DHT22;34865;51.046;3.732;2022-09-09T10:07:18;19.10;99.90
23073;DHT22;34865;51.046;3.732;2022-09-09T10:09:45;19.10;99.90
23073;DHT22;34865;51.046;3.732;2022-09-09T10:15:06;18.90;99.90
23073;DHT22;34865;51.046;3.732;2022-09-09T10:18:05;18.70;99.90
23073;DHT22;34865;51.046;3.732;2022-09-09T10:21:32;18.70;99.90
23073;DHT22;34865;51.046;3.732;2022-09-09T10:24:09;18.90;99.90
23073;DHT22;34865;51.046;3.732;2022-09-09T10:27:01;19.20;99.90
23073;DHT22;34865;51.046;3.732;2022-09-09T10:32:38;19.10;99.90
23073;DHT22;34865;51.046;3.732;2022-09-09T10:35:57;19.10;99.90
23073;DHT22;34865;51.046;3.732;2022-09-09T10:38:24;19.20;99.90
23073;DHT22;34865;51.046;3.732;2022-09-09T10:46:52;19.40;99.90
23073;DHT22;34865;51.046;3.732;2022-09-09T10:49:52;19.40;99.90
23073;DHT22;34865;51.046;3.732;2022-09-09T10:55:17;19.90;99.90
23073;DHT22;34865;51.046;3.732;2022-09-09T10:57:49;19.80;99.90
23073;DHT22;34865;51.046;3.732;2022-09-09T11:02:56;19.40;99.90
23073;DHT22;34865;51.046;3.732;2022-09-09T11:05:40;19.60;99.90
23073;DHT22;34865;51.046;3.732;2022-09-09T11:08:12;19.90;99.90
23073;DHT22;34865;51.046;3.732;2022-09-09T11:10:58;19.90;99.90
23073;DHT22;34865;51.046;3.732;2022-09-09T11:13:56;19.90;99.90
23073;DHT22;34865;51.046;3.732;2022-09-09T11:19:03;20.20;99.90
23073;DHT22;34865;51.046;3.732;2022-09-09T11:21:51;20.60;99.90
23073;DHT22;34865;51.046;3.732;2022-09-09T11:24:40;20.90;99.90
23073;DHT22;34865;51.046;3.732;2022-09-09T11:39:06;20.90;99.90
23073;DHT22;34865;51.046;3.732;2022-09-09T11:41:05;20.90;99.90
23073;DHT22;34865;51.046;3.732;2022-09-09T11:43:42;21.00;99.90
23073;DHT22;34865;51.046;3.732;2022-09-09T11:46:09;21.10;99.90
23073;DHT22;34865;51.046;3.732;2022-09-09T11:48:40;21.10;99.90
23073;DHT22;34865;51.046;3.732;2022-09-09T11:53:59;20.70;99.90
23073;DHT22;34865;51.046;3.732;2022-09-09T11:56:44;20.40;99.90
23073;DHT22;34865;51.046;3.732;2022-09-09T11:59:28;20.30;99.90
23073;DHT22;34865;51.046;3.732;2022-09-09T12:02:03;20.10;99.90
23073;DHT22;34865;51.046;3.732;2022-09-09T12:04:39;20.50;99.90
23073;DHT22;34865;51.046;3.732;2022-09-09T12:10:20;20.70;99.90
23073;DHT22;34865;51.046;3.732;2022-09-09T12:12:50;20.90;99.90
23073;DHT22;34865;51.046;3.732;2022-09-09T12:15:21;21.40;99.90
23073;DHT22;34865;51.046;3.732;2022-09-09T12:17:52;21.50;99.90
23073;DHT22;34865;51.046;3.732;2022-09-09T12:20:26;21.30;99.90
23073;DHT22;34865;51.046;3.732;2022-09-09T12:23:15;21.10;99.90
23073;DHT22;34865;51.046;3.732;2022-09-09T12:32:18;21.00;99.90
23073;DHT22;34865;51.046;3.732;2022-09-09T12:35:02;20.90;99.90
23073;DHT22;34865;51.046;3.732;2022-09-09T12:37:48;20.60;99.90
23073;DHT22;34865;51.046;3.732;2022-09-09T12:40:24;20.70;99.90
23073;DHT22;34865;51.046;3.732;2022-09-09T12:42:51;20.90;99.90
23073;DHT22;34865;51.046;3.732;2022-09-09T12:45:29;21.20;99.90
23073;DHT22;34865;51.046;3.732;2022-09-09T12:48:10;21.30;99.90
23073;DHT22;34865;51.046;3.732;2022-09-09T12:50:48;21.50;99.90
23073;DHT22;34865;51.046;3.732;2022-09-09T12:53:30;21.80;99.90
23073;DHT22;34865;51.046;3.732;2022-09-09T12:56:03;21.60;99.90
23073;DHT22;34865;51.046;3.732;2022-09-09T12:58:35;21.40;99.90
23073;DHT22;34865;51.046;3.732;2022-09-09T13:01:32;21.10;99.90
23073;DHT22;34865;51.046;3.732;2022-09-09T13:03:59;20.90;99.90
23073;DHT22;34865;51.046;3.732;2022-09-09T13:07:04;20.90;99.90
23073;DHT22;34865;51.046;3.732;2022-09-09T13:09:36;20.70;99.90
23073;DHT22;34865;51.046;3.732;2022-09-09T13:12:16;20.60;99.90
23073;DHT22;34865;51.046;3.732;2022-09-09T13:14:46;20.50;99.90
23073;DHT22;34865;51.046;3.732;2022-09-09T13:17:31;20.40;99.90
23073;DHT22;34865;51.046;3.732;2022-09-09T13:19:57;20.30;99.90
23073;DHT22;34865;51.046;3.732;2022-09-09T13:22:29;20.40;99.90
23073;DHT22;34865;51.046;3.732;2022-09-09T13:25:05;20.80;99.90
23073;DHT22;34865;51.046;3.732;2022-09-09T13:27:41;21.30;99.90
23073;DHT22;34865;51.046;3.732;2022-09-09T13:30:22;21.60;99.90
23073;DHT22;34865;51.046;3.732;2022-09-09T13:33:03;21.80;99.90
23073;DHT22;34865;51.046;3.732;2022-09-09T13:35:29;21.80;99.90
23073;DHT22;34865;51.046;3.732;2022-09-09T13:37:56;21.80;99.90
23073;DHT22;34865;51.046;3.732;2022-09-09T13:40:23;21.70;99.90
23073;DHT22;34865;51.046;3.732;2022-09-09T13:42:55;21.90;99.90
23073;DHT22;34865;51.046;3.732;2022-09-09T13:45:23;22.00;99.90
23073;DHT22;34865;51.046;3.732;2022-09-09T13:47:53;22.00;99.90
23073;DHT22;34865;51.046;3.732;2022-09-09T13:50:24;21.70;99.90
23073;DHT22;34865;51.046;3.732;2022-09-09T13:52:53;21.70;99.90
23073;DHT22;34865;51.046;3.732;2022-09-09T13:55:23;21.40;99.90
23073;DHT22;34865;51.046;3.732;2022-09-09T13:57:56;21.30;99.90
23073;DHT22;34865;51.046;3.732;2022-09-09T14:00:23;21.30;99.90
23073;DHT22;34865;51.046;3.732;2022-09-09T14:02:52;21.40;99.90
23073;DHT22;34865;51.046;3.732;2022-09-09T14:05:20;21.40;99.90
23073;DHT22;34865;51.046;3.732;2022-09-09T14:07:48;21.60;99.90
23073;DHT22;34865;51.046;3.732;2022-09-09T14:10:14;21.60;99.90
23073;DHT22;34865;51.046;3.732;2022-09-09T14:12:40;21.50;99.90
23073;DHT22;34865;51.046;3.732;2022-09-09T14:15:07;21.50;99.90
23073;DHT22;34865;51.046;3.732;2022-09-09T14:17:35;21.30;99.90
23073;DHT22;34865;51.046;3.732;2022-09-09T14:20:03;21.10;99.90
23073;DHT22;34865;51.046;3.732;2022-09-09T14:22:31;21.10;99.90
23073;DHT22;34865;51.046;3.732;2022-09-09T14:25:00;21.20;99.90
23073;DHT22;34865;51.046;3.732;2022-09-09T14:27:26;21.30;99.90
23073;DHT22;34865;51.046;3.732;2022-09-09T14:29:52;21.40;99.90
23073;DHT22;34865;51.046;3.732;2022-09-09T14:32:18;21.50;99.90
23073;DHT22;34865;51.046;3.732;2022-09-09T14:34:44;21.60;99.90
23073;DHT22;34865;51.046;3.732;2022-09-09T14:37:09;22.00;99.90
23073;DHT22;34865;51.046;3.732;2022-09-09T14:39:35;22.30;99.90
23073;DHT22;34865;51.046;3.732;2022-09-09T14:42:01;22.50;99.90
23073;DHT22;34865;51.046;3.732;2022-09-09T14:44:28;22.40;99.90
23073;DHT22;34865;51.046;3.732;2022-09-09T14:46:54;22.20;99.90
23073;DHT22;34865;51.046;3.732;2022-09-09T14:49:22;22.20;99.90
23073;DHT22;34865;51.046;3.732;2022-09-09T14:51:51;22.30;99.90
23073;DHT22;34865;51.046;3.732;2022-09-09T14:54:17;22.40;99.90
23073;DHT22;34865;51.046;3.732;2022-09-09T14:56:42;22.50;99.90
23073;DHT22;34865;51.046;3.732;2022-09-09T14:59:08;22.70;99.90
23073;DHT22;34865;51.046;3.732;2022-09-09T15:01:34;22.20;99.90
23073;DHT22;34865;51.046;3.732;2022-09-09T15:04:02;22.00;99.90
23073;DHT22;34865;51.046;3.732;2022-09-09T15:06:31;21.80;99.90
23073;DHT22;34865;51.046;3.732;2022-09-09T15:08:59;21.80;99.90
23073;DHT22;34865;51.046;3.732;2022-09-09T15:11:30;21.80;99.90
23073;DHT22;34865;51.046;3.732;2022-09-09T15:13:57;21.80;99.90
23073;DHT22;34865;51.046;3.732;2022-09-09T15:16:27;21.90;99.90
23073;DHT22;34865;51.046;3.732;2022-09-09T15:18:55;21.70;99.90
23073;DHT22;34865;51.046;3.732;2022-09-09T15:21:23;21.40;99.90
23073;DHT22;34865;51.046;3.732;2022-09-09T15:23:57;21.30;99.90
23073;DHT22;34865;51.046;3.732;2022-09-09T15:26:23;21.50;99.90
23073;DHT22;34865;51.046;3.732;2022-09-09T15:28:50;21.40;99.90
23073;DHT22;34865;51.046;3.732;2022-09-09T15:31:21;21.40;99.90
23073;DHT22;34865;51.046;3.732;2022-09-09T15:33:48;21.40;99.90
23073;DHT22;34865;51.046;3.732;2022-09-09T15:36:16;21.30;99.90
23073;DHT22;34865;51.046;3.732;2022-09-09T15:38:42;21.20;99.90
23073;DHT22;34865;51.046;3.732;2022-09-09T15:41:10;21.10;99.90
23073;DHT22;34865;51.046;3.732;2022-09-09T15:43:35;21.00;99.90
23073;DHT22;34865;51.046;3.732;2022-09-09T15:46:25;20.90;99.90
23073;DHT22;34865;51.046;3.732;2022-09-09T15:48:54;20.80;99.90
23073;DHT22;34865;51.046;3.732;2022-09-09T15:51:21;20.70;99.90
23073;DHT22;34865;51.046;3.732;2022-09-09T15:53:47;20.70;99.90
23073;DHT22;34865;51.046;3.732;2022-09-09T15:56:12;20.70;99.90
23073;DHT22;34865;51.046;3.732;2022-09-09T15:58:38;20.90;99.90
23073;DHT22;34865;51.046;3.732;2022-09-09T16:01:04;21.00;99.90
23073;DHT22;34865;51.046;3.732;2022-09-09T16:03:38;20.90;99.90
23073;DHT22;34865;51.046;3.732;2022-09-09T16:06:04;20.90;99.90
23073;DHT22;34865;51.046;3.732;2022-09-09T16:08:34;21.00;99.90
23073;DHT22;34865;51.046;3.732;2022-09-09T16:11:13;21.10;99.90
23073;DHT22;34865;51.046;3.732;2022-09-09T16:13:52;21.10;99.90
23073;DHT22;34865;51.046;3.732;2022-09-09T16:16:21;21.10;99.90
23073;DHT22;34865;51.046;3.732;2022-09-09T16:18:55;21.20;99.90
23073;DHT22;34865;51.046;3.732;2022-09-09T16:21:23;21.20;99.90
23073;DHT22;34865;51.046;3.732;2022-09-09T16:23:55;21.40;99.90
23073;DHT22;34865;51.046;3.732;2022-09-09T16:26:28;21.40;99.90
23073;DHT22;34865;51.046;3.732;2022-09-09T16:28:58;21.20;99.90
23073;DHT22;34865;51.046;3.732;2022-09-09T16:31:26;21.20;99.90
23073;DHT22;34865;51.046;3.732;2022-09-09T16:33:53;21.10;99.90
23073;DHT22;34865;51.046;3.732;2022-09-09T16:36:23;21.10;99.90
23073;DHT22;34865;51.046;3.732;2022-09-09T16:38:56;21.00;99.90
23073;DHT22;34865;51.046;3.732;2022-09-09T16:41:27;21.00;99.90
23073;DHT22;34865;51.046;3.732;2022-09-09T16:44:00;21.10;99.90
23073;DHT22;34865;51.046;3.732;2022-09-09T16:46:28;20.90;99.90
23073;DHT22;34865;51.046;3.732;2022-09-09T16:48:56;20.90;99.90
23073;DHT22;34865;51.046;3.732;2022-09-09T16:51:30;21.00;99.90
23073;DHT22;34865;51.046;3.732;2022-09-09T16:53:58;20.90;99.90
23073;DHT22;34865;51.046;3.732;2022-09-09T16:56:28;20.60;99.90
23073;DHT22;34865;51.046;3.732;2022-09-09T16:59:12;20.50;99.90
23073;DHT22;34865;51.046;3.732;2022-09-09T17:01:42;20.60;99.90
23073;DHT22;34865;51.046;3.732;2022-09-09T17:04:18;20.70;99.90
23073;DHT22;34865;51.046;3.732;2022-09-09T17:06:50;20.60;99.90
23073;DHT22;34865;51.046;3.732;2022-09-09T17:09:17;20.20;99.90
23073;DHT22;34865;51.046;3.732;2022-09-09T17:11:44;19.80;99.90
23073;DHT22;34865;51.046;3.732;2022-09-09T17:14:15;19.70;99.90
23073;DHT22;34865;51.046;3.732;2022-09-09T17:16:44;19.30;99.90
23073;DHT22;34865;51.046;3.732;2022-09-09T17:19:10;18.70;99.90
23073;DHT22;34865;51.046;3.732;2022-09-09T17:21:37;18.60;99.90
23073;DHT22;34865;51.046;3.732;2022-09-09T17:24:06;18.50;99.90
23073;DHT22;34865;51.046;3.732;2022-09-09T17:26:33;18.50;99.90
23073;DHT22;34865;51.046;3.732;2022-09-09T17:29:02;18.40;99.90
23073;DHT22;34865;51.046;3.732;2022-09-09T17:31:29;18.40;99.90
23073;DHT22;34865;51.046;3.732;2022-09-09T17:33:55;18.50;99.90
23073;DHT22;34865;51.046;3.732;2022-09-09T17:36:32;18.40;99.90
23073;DHT22;34865;51.046;3.732;2022-09-09T17:39:01;18.40;99.90
23073;DHT22;34865;51.046;3.732;2022-09-09T17:41:33;18.40;99.90
23073;DHT22;34865;51.046;3.732;2022-09-09T17:44:04;18.30;99.90
23073;DHT22;34865;51.046;3.732;2022-09-09T17:46:37;18.10;99.90